Time;durP1;ratioP1;P1;durP2;ratioP2;P2;SDS_P1;SDS_P2;PMS_P1;PMS_P2;Temp;Humidity;BMP_temperature;BMP_pressure;BME280_temperature;BME280_humidity;BME280_pressure;Samples;Min_cycle;Max_cycle;Signal;HPM_P1;HPM_P2
2023/10/27 00:00:53;;;;;;;130.85;46.95;;;9.80;99.90;;;;;;5076887;28;20032;-71
2023/10/27 00:03:18;;;;;;;136.95;48.65;;;9.50;99.90;;;;;;5076497;28;20463;-71
2023/10/27 00:05:44;;;;;;;135.38;47.03;;;9.40;99.90;;;;;;5076789;28;20020;-70
2023/10/27 00:08:10;;;;;;;137.93;46.63;;;9.50;99.90;;;;;;5076466;28;20029;-70
2023/10/27 00:10:36;;;;;;;127.00;45.63;;;9.50;99.90;;;;;;5076418;28;20028;-70
2023/10/27 00:13:02;;;;;;;116.30;43.22;;;9.50;99.90;;;;;;5076351;28;20491;-70
2023/10/27 00:15:27;;;;;;;112.07;42.83;;;9.50;99.90;;;;;;5076027;28;20056;-70
2023/10/27 00:17:56;;;;;;;102.32;38.30;;;9.40;99.90;;;;;;5076317;28;20024;-70
2023/10/27 00:20:22;;;;;;;119.65;42.67;;;9.40;99.90;;;;;;5075674;28;20024;-71
2023/10/27 00:22:48;;;;;;;96.03;38.28;;;9.30;99.90;;;;;;5076404;28;20082;-70
2023/10/27 00:25:13;;;;;;;106.38;39.55;;;9.20;99.90;;;;;;5075950;28;20027;-70
2023/10/27 00:27:39;;;;;;;79.93;34.20;;;9.20;99.90;;;;;;5076085;28;20038;-71
2023/10/27 00:30:06;;;;;;;94.07;36.45;;;9.30;99.90;;;;;;5076227;28;20032;-70
2023/10/27 00:32:32;;;;;;;103.95;39.25;;;9.20;99.90;;;;;;5076319;28;20032;-70
2023/10/27 00:34:57;;;;;;;99.97;37.67;;;9.20;99.90;;;;;;5075660;28;20114;-70
2023/10/27 00:37:23;;;;;;;92.03;36.55;;;9.10;99.90;;;;;;5074920;28;20048;-70
2023/10/27 00:39:49;;;;;;;89.53;36.05;;;9.10;99.90;;;;;;5076207;28;20027;-70
2023/10/27 00:42:14;;;;;;;91.57;36.58;;;9.20;99.90;;;;;;5075408;28;20355;-70
2023/10/27 00:44:40;;;;;;;109.45;38.95;;;9.20;99.90;;;;;;5075493;28;20402;-70
2023/10/27 00:47:06;;;;;;;102.40;37.67;;;9.10;99.90;;;;;;5076070;28;20165;-70
2023/10/27 00:49:31;;;;;;;103.30;39.25;;;9.20;99.90;;;;;;5075294;28;20082;-71
2023/10/27 00:51:57;;;;;;;94.95;37.72;;;9.20;99.90;;;;;;5075513;28;20064;-70
2023/10/27 00:54:25;;;;;;;97.40;37.10;;;9.20;99.90;;;;;;5075529;28;20040;-70
2023/10/27 00:56:51;;;;;;;97.03;38.17;;;9.20;99.90;;;;;;5075396;28;20035;-70
2023/10/27 00:59:17;;;;;;;81.85;33.85;;;9.10;99.90;;;;;;5075361;28;20032;-70
2023/10/27 01:01:42;;;;;;;87.75;34.85;;;9.00;99.90;;;;;;5054991;28;20075;-70
2023/10/27 01:04:08;;;;;;;86.32;35.10;;;8.90;99.90;;;;;;5055639;28;20537;-70
2023/10/27 01:06:34;;;;;;;82.95;33.50;;;8.90;99.90;;;;;;5054660;28;20028;-70
2023/10/27 01:09:00;;;;;;;79.85;32.13;;;8.80;99.90;;;;;;5055626;28;20031;-70
2023/10/27 01:11:26;;;;;;;82.90;34.65;;;8.70;99.90;;;;;;5055057;28;20451;-70
2023/10/27 01:13:53;;;;;;;93.78;35.50;;;8.70;99.90;;;;;;5055310;28;20024;-70
2023/10/27 01:16:18;;;;;;;94.80;35.55;;;8.60;99.90;;;;;;5055297;28;20021;-70
2023/10/27 01:18:44;;;;;;;110.72;35.92;;;8.50;99.90;;;;;;5054769;28;20087;-70
2023/10/27 01:21:10;;;;;;;95.72;36.00;;;8.40;99.90;;;;;;5055027;28;20032;-70
2023/10/27 01:23:35;;;;;;;94.53;37.05;;;8.40;99.90;;;;;;5054855;28;20021;-70
2023/10/27 01:26:01;;;;;;;123.55;39.50;;;8.40;99.90;;;;;;5054473;28;20465;-70
2023/10/27 01:28:27;;;;;;;96.95;37.85;;;8.50;99.90;;;;;;5054514;28;20048;-70
2023/10/27 01:30:52;;;;;;;92.03;35.85;;;8.60;99.90;;;;;;5055160;28;20033;-71
2023/10/27 01:33:18;;;;;;;86.75;34.92;;;8.60;99.90;;;;;;5054568;28;20083;-70
2023/10/27 01:35:43;;;;;;;88.30;35.97;;;8.50;99.90;;;;;;5054124;28;20449;-70
2023/10/27 01:38:09;;;;;;;82.30;33.28;;;8.50;99.90;;;;;;5054738;28;20029;-70
2023/10/27 01:40:34;;;;;;;81.88;32.15;;;8.50;99.90;;;;;;5054723;28;20104;-70
2023/10/27 01:43:00;;;;;;;83.30;33.35;;;8.40;99.90;;;;;;5054233;28;20494;-70
2023/10/27 01:45:25;;;;;;;88.60;35.30;;;8.40;99.90;;;;;;5054463;28;20063;-70
2023/10/27 01:47:51;;;;;;;111.05;40.95;;;8.40;99.90;;;;;;5054002;28;20033;-70
2023/10/27 01:50:16;;;;;;;97.22;37.85;;;8.60;99.90;;;;;;5054783;28;20086;-70
2023/10/27 01:52:42;;;;;;;94.30;36.70;;;8.60;99.90;;;;;;5054023;28;20036;-70
2023/10/27 01:55:09;;;;;;;100.93;37.97;;;8.60;99.90;;;;;;5054709;28;20079;-70
2023/10/27 01:57:34;;;;;;;104.00;38.90;;;8.60;99.90;;;;;;5053901;28;20072;-70
2023/10/27 02:00:00;;;;;;;100.03;37.83;;;8.60;99.90;;;;;;5054367;28;20032;-70
2023/10/27 02:02:25;;;;;;;100.38;37.33;;;8.20;99.90;;;;;;5054550;28;20094;-69
2023/10/27 02:04:51;;;;;;;103.50;38.60;;;8.70;99.90;;;;;;5054426;28;20017;-70
2023/10/27 02:07:16;;;;;;;97.88;37.35;;;8.70;99.90;;;;;;5054010;28;20467;-70
2023/10/27 02:09:43;;;;;;;89.80;33.92;;;8.70;99.90;;;;;;5053796;28;20031;-70
2023/10/27 02:12:09;;;;;;;95.95;35.88;;;8.70;99.90;;;;;;5054376;28;20028;-70
2023/10/27 02:14:36;;;;;;;98.72;36.67;;;8.80;99.90;;;;;;5053394;28;20049;-76
2023/10/27 02:17:02;;;;;;;85.45;34.60;;;8.80;99.90;;;;;;5054161;28;20032;-70
2023/10/27 02:19:27;;;;;;;101.85;39.17;;;8.90;99.90;;;;;;5054265;28;20033;-70
2023/10/27 02:21:53;;;;;;;95.47;37.63;;;9.00;99.90;;;;;;5054278;28;20025;-70
2023/10/27 02:24:18;;;;;;;101.57;37.97;;;9.00;99.90;;;;;;5053949;28;20371;-70
2023/10/27 02:26:44;;;;;;;100.50;37.08;;;9.00;99.90;;;;;;5053688;28;20146;-70
2023/10/27 02:29:10;;;;;;;93.43;35.97;;;9.00;99.90;;;;;;5053874;28;20032;-70
2023/10/27 02:31:35;;;;;;;103.38;37.70;;;9.10;99.90;;;;;;5053620;28;20513;-70
2023/10/27 02:34:01;;;;;;;94.43;37.60;;;9.10;99.90;;;;;;5053838;28;20064;-70
2023/10/27 02:36:26;;;;;;;92.97;35.90;;;9.20;99.90;;;;;;5053104;28;20041;-70
2023/10/27 02:38:52;;;;;;;102.93;37.55;;;9.10;99.90;;;;;;5053752;28;20033;-70
2023/10/27 02:41:18;;;;;;;99.70;36.78;;;9.20;99.90;;;;;;5053861;28;20025;-71
2023/10/27 02:43:43;;;;;;;87.13;35.33;;;9.30;99.90;;;;;;5053118;28;20025;-70
2023/10/27 02:46:12;;;;;;;83.80;33.95;;;9.20;99.90;;;;;;5053526;28;20052;-70
2023/10/27 02:48:38;;;;;;;89.45;35.00;;;9.40;99.90;;;;;;5053674;28;20051;-70
2023/10/27 02:51:04;;;;;;;81.85;35.13;;;9.30;99.90;;;;;;5053887;28;20029;-70
2023/10/27 02:53:29;;;;;;;89.50;34.67;;;9.30;99.90;;;;;;5053864;28;20035;-70
2023/10/27 02:55:55;;;;;;;93.43;37.38;;;9.20;99.90;;;;;;5053726;28;20173;-71
2023/10/27 02:58:21;;;;;;;91.82;34.70;;;9.30;99.90;;;;;;5053642;28;20451;-70
2023/10/27 03:00:46;;;;;;;81.97;33.70;;;9.40;99.90;;;;;;5053046;28;20021;-70
2023/10/27 03:03:12;;;;;;;95.53;34.78;;;9.40;99.90;;;;;;5053503;28;20041;-70
2023/10/27 03:05:37;;;;;;;87.60;35.40;;;9.40;99.90;;;;;;5053625;28;20030;-70
2023/10/27 03:08:03;;;;;;;93.10;35.53;;;9.40;99.90;;;;;;5053092;28;20083;-70
2023/10/27 03:10:29;;;;;;;84.82;35.85;;;9.40;99.90;;;;;;5053761;28;20446;-70
2023/10/27 03:12:54;;;;;;;91.43;36.08;;;9.50;99.90;;;;;;5053376;28;20112;-70
2023/10/27 03:15:20;;;;;;;88.68;34.85;;;9.40;99.90;;;;;;5053471;28;20061;-70
2023/10/27 03:17:46;;;;;;;86.38;35.00;;;9.50;99.90;;;;;;5053197;28;20033;-70
2023/10/27 03:20:11;;;;;;;83.43;34.25;;;9.40;99.90;;;;;;5056092;28;20025;-70
2023/10/27 03:22:37;;;;;;;85.25;34.97;;;9.50;99.90;;;;;;5057576;28;20060;-70
2023/10/27 03:25:03;;;;;;;82.57;34.95;;;9.40;99.90;;;;;;5057137;28;20021;-70
2023/10/27 03:27:32;;;;;;;76.72;33.20;;;9.20;99.90;;;;;;5057277;28;20029;-71
2023/10/27 03:29:58;;;;;;;85.93;34.85;;;9.30;99.90;;;;;;5056745;28;20036;-70
2023/10/27 03:32:23;;;;;;;74.63;31.02;;;9.30;99.90;;;;;;5057426;28;20041;-70
2023/10/27 03:34:49;;;;;;;84.22;33.13;;;9.10;99.90;;;;;;5056555;28;20388;-70
2023/10/27 03:37:15;;;;;;;83.10;33.63;;;9.20;99.90;;;;;;5056336;28;20142;-70
2023/10/27 03:39:40;;;;;;;78.75;32.22;;;9.20;99.90;;;;;;5057135;28;20024;-70
2023/10/27 03:42:07;;;;;;;79.50;33.78;;;9.20;99.90;;;;;;5056977;28;20021;-70
2023/10/27 03:44:33;;;;;;;82.05;32.85;;;9.10;99.90;;;;;;5057138;28;20520;-70
2023/10/27 03:46:58;;;;;;;73.70;33.35;;;8.30;99.90;;;;;;5056535;28;20037;-70
2023/10/27 03:49:25;;;;;;;79.45;33.00;;;9.20;99.90;;;;;;5056697;28;20383;-70
2023/10/27 03:51:50;;;;;;;87.22;35.47;;;9.10;99.90;;;;;;5056376;28;20032;-70
2023/10/27 03:54:17;;;;;;;87.40;34.85;;;9.00;99.90;;;;;;5057076;28;20485;-70
2023/10/27 03:56:43;;;;;;;83.45;35.70;;;9.10;99.90;;;;;;5056502;28;20029;-70
2023/10/27 03:59:10;;;;;;;78.53;32.92;;;9.10;99.90;;;;;;5056490;28;20028;-70
2023/10/27 04:01:36;;;;;;;77.50;33.70;;;9.30;99.90;;;;;;5056651;28;20522;-70
2023/10/27 04:04:01;;;;;;;81.22;34.63;;;9.20;99.90;;;;;;5056828;28;20120;-70
2023/10/27 04:06:28;;;;;;;86.70;35.05;;;9.20;99.90;;;;;;5056047;28;20025;-70
2023/10/27 04:08:54;;;;;;;84.13;34.42;;;9.30;99.90;;;;;;5056310;28;20028;-70
2023/10/27 04:11:19;;;;;;;87.18;34.55;;;9.30;99.90;;;;;;5056259;28;20021;-70
2023/10/27 04:13:45;;;;;;;80.95;33.55;;;9.30;99.90;;;;;;5056497;28;20025;-71
2023/10/27 04:16:10;;;;;;;91.38;35.35;;;9.20;99.90;;;;;;5056539;28;20036;-70
2023/10/27 04:18:36;;;;;;;74.40;32.40;;;9.20;99.90;;;;;;5055581;28;20025;-69
2023/10/27 04:21:03;;;;;;;80.57;33.10;;;9.40;99.90;;;;;;5056517;28;20032;-69
2023/10/27 04:23:28;;;;;;;81.10;34.65;;;9.30;99.90;;;;;;5056058;28;20460;-69
2023/10/27 04:25:54;;;;;;;90.20;33.35;;;9.20;99.90;;;;;;5056327;28;20032;-73
2023/10/27 04:28:21;;;;;;;72.82;32.20;;;9.30;99.90;;;;;;5056051;28;20057;-69
2023/10/27 04:30:46;;;;;;;68.53;30.70;;;9.20;99.90;;;;;;5055581;28;20387;-69
2023/10/27 04:33:12;;;;;;;76.95;32.00;;;9.30;99.90;;;;;;5055935;28;20021;-69
2023/10/27 04:35:37;;;;;;;75.68;31.25;;;9.40;99.90;;;;;;5055531;28;20083;-69
2023/10/27 04:38:03;;;;;;;74.43;31.33;;;9.20;99.90;;;;;;5055846;28;20029;-69
2023/10/27 04:40:30;;;;;;;72.32;31.92;;;9.20;99.90;;;;;;5055505;28;20021;-70
2023/10/27 04:42:58;;;;;;;79.43;31.83;;;9.20;99.90;;;;;;5055842;28;20028;-69
2023/10/27 04:45:24;;;;;;;72.72;32.05;;;9.20;99.90;;;;;;5055816;28;20025;-71
2023/10/27 04:47:49;;;;;;;74.28;32.05;;;9.10;99.90;;;;;;5055671;28;20086;-70
2023/10/27 04:50:15;;;;;;;79.00;33.55;;;9.30;99.90;;;;;;5055608;28;20036;-69
2023/10/27 04:52:41;;;;;;;75.15;32.15;;;9.40;99.90;;;;;;5055889;28;20544;-69
2023/10/27 04:55:07;;;;;;;61.85;29.50;;;9.30;99.90;;;;;;5055440;28;20060;-70
2023/10/27 04:57:35;;;;;;;75.20;31.10;;;9.20;99.90;;;;;;5055324;28;20039;-69
2023/10/27 05:00:01;;;;;;;66.43;30.20;;;9.20;99.90;;;;;;5055541;28;20038;-69
2023/10/27 05:02:26;;;;;;;68.28;30.02;;;9.30;99.90;;;;;;5055619;28;20040;-69
2023/10/27 05:04:52;;;;;;;77.78;30.95;;;9.40;99.90;;;;;;5055638;28;20676;-69
2023/10/27 05:07:17;;;;;;;72.38;29.77;;;9.40;99.90;;;;;;5055530;28;20055;-69
2023/10/27 05:09:43;;;;;;;63.55;29.20;;;9.40;99.90;;;;;;5054931;28;20032;-70
2023/10/27 05:12:08;;;;;;;61.05;28.23;;;9.10;99.90;;;;;;5055429;28;20033;-69
2023/10/27 05:14:34;;;;;;;58.60;27.42;;;9.40;99.90;;;;;;5055136;28;20033;-69
2023/10/27 05:17:00;;;;;;;71.47;31.95;;;9.30;99.90;;;;;;5055026;28;20029;-69
2023/10/27 05:19:26;;;;;;;67.13;29.33;;;9.50;99.90;;;;;;5055363;28;20056;-69
2023/10/27 05:21:51;;;;;;;65.20;29.95;;;9.40;99.90;;;;;;5054391;28;20036;-69
2023/10/27 05:24:17;;;;;;;75.95;31.85;;;9.40;99.90;;;;;;5055290;28;20029;-69
2023/10/27 05:26:43;;;;;;;70.65;30.63;;;9.40;99.90;;;;;;5054652;28;20171;-69
2023/10/27 05:29:08;;;;;;;74.30;30.98;;;9.30;99.90;;;;;;5054893;28;20494;-70
2023/10/27 05:31:34;;;;;;;68.40;30.13;;;9.40;99.90;;;;;;5054836;28;20222;-69
2023/10/27 05:34:00;;;;;;;75.40;31.88;;;9.20;99.90;;;;;;5055036;28;20032;-69
2023/10/27 05:36:26;;;;;;;78.22;32.03;;;9.30;99.90;;;;;;5054392;28;20411;-69
2023/10/27 05:38:51;;;;;;;79.15;32.35;;;9.10;99.90;;;;;;5054374;28;20103;-69
2023/10/27 05:41:18;;;;;;;76.70;30.65;;;;;;;;;;5054388;28;20517;-69
2023/10/27 05:43:44;;;;;;;73.75;31.58;;;9.30;99.90;;;;;;5053484;28;20068;-69
2023/10/27 05:46:10;;;;;;;73.20;30.77;;;9.40;99.90;;;;;;5054821;28;20017;-69
2023/10/27 05:48:36;;;;;;;68.53;29.27;;;9.50;99.90;;;;;;5054360;28;20031;-69
2023/10/27 05:51:03;;;;;;;67.35;30.10;;;9.30;99.90;;;;;;5054331;28;20078;-70
2023/10/27 05:53:28;;;;;;;67.22;29.35;;;9.30;99.90;;;;;;5054370;28;20025;-73
2023/10/27 05:55:54;;;;;;;70.30;31.00;;;9.40;99.90;;;;;;5054013;28;20028;-69
2023/10/27 05:58:19;;;;;;;65.10;30.63;;;9.10;99.90;;;;;;5054371;28;20372;-71
2023/10/27 06:00:46;;;;;;;67.50;30.35;;;9.50;99.90;;;;;;5054581;28;20036;-69
2023/10/27 06:03:11;;;;;;;67.70;29.80;;;9.50;99.90;;;;;;5053765;28;20021;-69
2023/10/27 06:05:37;;;;;;;68.90;30.02;;;9.40;99.90;;;;;;5053286;28;20387;-69
2023/10/27 06:08:03;;;;;;;63.95;27.00;;;9.50;99.90;;;;;;5054006;28;20029;-68
2023/10/27 06:10:29;;;;;;;66.93;28.63;;;9.50;99.90;;;;;;5053592;28;20025;-69
2023/10/27 06:12:55;;;;;;;69.72;31.02;;;9.40;99.90;;;;;;5054088;28;20025;-69
2023/10/27 06:15:21;;;;;;;69.68;29.50;;;9.50;99.90;;;;;;5053662;28;20075;-68
2023/10/27 06:17:46;;;;;;;63.65;28.77;;;9.40;99.90;;;;;;5053776;28;20035;-69
2023/10/27 06:20:12;;;;;;;61.70;27.92;;;9.40;99.90;;;;;;5053594;28;20063;-69
2023/10/27 06:22:38;;;;;;;62.75;28.30;;;9.50;99.90;;;;;;5054300;28;20021;-69
2023/10/27 06:25:04;;;;;;;64.47;27.85;;;9.60;99.90;;;;;;5053837;28;20134;-69
2023/10/27 06:27:29;;;;;;;66.60;29.23;;;9.50;99.90;;;;;;5054219;28;20041;-69
2023/10/27 06:29:56;;;;;;;67.30;29.10;;;9.50;99.90;;;;;;5053753;28;20463;-69
2023/10/27 06:32:23;;;;;;;69.05;29.30;;;9.50;99.90;;;;;;5054113;28;20475;-69
2023/10/27 06:34:48;;;;;;;72.70;30.42;;;9.50;99.90;;;;;;5053575;28;20021;-69
2023/10/27 06:37:14;;;;;;;71.90;29.60;;;9.50;99.90;;;;;;5052738;28;20037;-70
2023/10/27 06:39:40;;;;;;;68.20;29.05;;;9.50;99.90;;;;;;5053160;28;20032;-68
2023/10/27 06:42:06;;;;;;;68.00;28.60;;;9.50;99.90;;;;;;5053525;28;20029;-69
2023/10/27 06:44:32;;;;;;;67.68;29.23;;;9.50;99.90;;;;;;5054008;28;20104;-69
2023/10/27 06:46:57;;;;;;;67.18;29.65;;;9.60;99.90;;;;;;5053161;28;20056;-69
2023/10/27 06:49:23;;;;;;;71.53;30.63;;;9.60;99.90;;;;;;5053681;28;20029;-69
2023/10/27 06:51:49;;;;;;;73.82;30.33;;;9.50;99.90;;;;;;5053933;28;20051;-69
2023/10/27 06:54:14;;;;;;;75.55;31.08;;;9.50;99.90;;;;;;5056545;28;20025;-69
2023/10/27 06:56:40;;;;;;;75.57;30.52;;;9.20;99.90;;;;;;5057605;28;20116;-69
2023/10/27 06:59:05;;;;;;;74.22;31.23;;;9.50;99.90;;;;;;5057609;28;20017;-69
2023/10/27 07:01:31;;;;;;;69.93;30.08;;;9.50;99.90;;;;;;5057664;28;20021;-69
2023/10/27 07:03:56;;;;;;;70.70;30.38;;;9.60;99.90;;;;;;5057553;28;20029;-69
2023/10/27 07:06:22;;;;;;;84.35;31.30;;;9.60;99.90;;;;;;5057427;28;20456;-69
2023/10/27 07:08:47;;;;;;;74.55;30.10;;;9.60;99.90;;;;;;5056598;28;20029;-69
2023/10/27 07:11:13;;;;;;;71.32;30.45;;;9.60;99.90;;;;;;5057781;28;20087;-70
2023/10/27 07:13:39;;;;;;;71.13;29.05;;;9.60;99.90;;;;;;5056506;28;20123;-68
2023/10/27 07:16:05;;;;;;;71.22;29.20;;;9.60;99.90;;;;;;5057233;28;20021;-69
2023/10/27 07:18:30;;;;;;;67.22;29.45;;;10.00;99.90;;;;;;5057022;28;20146;-69
2023/10/27 07:20:56;;;;;;;75.05;30.65;;;9.70;99.90;;;;;;5057048;28;20025;-69
2023/10/27 07:23:22;;;;;;;74.88;31.08;;;9.60;99.90;;;;;;5057139;28;20029;-69
2023/10/27 07:25:48;;;;;;;74.53;31.02;;;9.70;99.90;;;;;;5056918;28;20067;-69
2023/10/27 07:28:14;;;;;;;75.13;30.02;;;9.70;99.90;;;;;;5057342;28;20045;-68
2023/10/27 07:30:39;;;;;;;78.22;33.00;;;9.70;99.90;;;;;;5057323;28;20032;-69
2023/10/27 07:33:05;;;;;;;78.82;32.50;;;9.60;99.90;;;;;;5056089;28;20021;-68
2023/10/27 07:35:31;;;;;;;73.38;30.70;;;9.70;99.90;;;;;;5057283;28;20028;-69
2023/10/27 07:37:58;;;;;;;70.68;29.23;;;9.70;99.90;;;;;;5055858;28;20510;-69
2023/10/27 07:40:24;;;;;;;71.97;31.35;;;9.80;99.90;;;;;;5057034;28;20039;-69
2023/10/27 07:42:49;;;;;;;70.35;28.10;;;9.80;99.90;;;;;;5057110;28;20035;-69
2023/10/27 07:45:15;;;;;;;76.82;32.08;;;9.70;99.90;;;;;;5056187;28;20021;-68
2023/10/27 07:47:40;;;;;;;68.88;30.02;;;9.80;99.90;;;;;;5056829;28;20033;-69
2023/10/27 07:50:06;;;;;;;68.88;30.55;;;9.80;99.90;;;;;;5056494;28;20124;-68
2023/10/27 07:52:33;;;;;;;66.57;31.00;;;9.80;99.90;;;;;;5056401;28;20021;-69
2023/10/27 07:54:59;;;;;;;76.10;31.08;;;9.90;99.90;;;;;;5056904;28;20025;-69
2023/10/27 07:57:26;;;;;;;77.43;33.08;;;10.20;99.90;;;;;;5056420;28;20032;-69
2023/10/27 07:59:52;;;;;;;75.85;33.38;;;9.90;99.90;;;;;;5056154;28;20077;-69
2023/10/27 08:02:17;;;;;;;66.22;31.92;;;9.90;99.90;;;;;;5056453;28;20025;-69
2023/10/27 08:04:43;;;;;;;70.35;30.17;;;9.60;99.90;;;;;;5055351;28;20037;-69
2023/10/27 08:07:08;;;;;;;67.82;30.23;;;10.00;99.90;;;;;;5056199;28;20040;-70
2023/10/27 08:09:34;;;;;;;69.28;29.73;;;10.00;99.90;;;;;;5056412;28;20379;-69
2023/10/27 08:11:59;;;;;;;69.25;31.05;;;10.00;99.90;;;;;;5056212;28;20374;-70
2023/10/27 08:14:25;;;;;;;72.20;30.42;;;9.90;99.90;;;;;;5056077;28;20134;-70
2023/10/27 08:16:51;;;;;;;70.03;29.40;;;9.90;99.90;;;;;;5056403;28;20025;-69
2023/10/27 08:19:17;;;;;;;68.13;29.45;;;9.90;99.90;;;;;;5055760;28;20052;-69
2023/10/27 08:21:43;;;;;;;72.05;31.70;;;10.20;99.90;;;;;;5055825;28;20666;-69
2023/10/27 08:24:09;;;;;;;73.88;32.53;;;10.00;99.90;;;;;;5056487;28;20021;-69
2023/10/27 08:26:35;;;;;;;76.32;32.83;;;10.00;99.90;;;;;;5056336;28;20356;-69
2023/10/27 08:29:01;;;;;;;79.38;32.35;;;10.00;99.90;;;;;;5056320;28;20029;-70
2023/10/27 08:31:26;;;;;;;74.20;30.83;;;10.00;99.90;;;;;;5055217;28;20386;-70
2023/10/27 08:33:52;;;;;;;76.65;30.08;;;9.90;99.90;;;;;;5055542;28;20028;-71
2023/10/27 08:36:18;;;;;;;68.85;31.08;;;10.10;99.90;;;;;;5055349;28;20138;-70
2023/10/27 08:38:44;;;;;;;76.43;32.20;;;10.20;99.90;;;;;;5055489;28;20025;-70
2023/10/27 08:41:09;;;;;;;73.50;31.17;;;10.20;99.90;;;;;;5055563;28;20113;-70
2023/10/27 08:43:36;;;;;;;77.97;31.58;;;10.10;99.90;;;;;;5056011;28;20360;-70
2023/10/27 08:46:04;;;;;;;73.45;31.33;;;10.20;99.90;;;;;;5055897;28;20025;-72
2023/10/27 08:48:31;;;;;;;72.28;30.00;;;10.10;99.90;;;;;;5055880;28;20042;-69
2023/10/27 08:51:04;;;;;;;75.30;30.52;;;10.00;99.90;;;;;;5055590;28;20429;-70
2023/10/27 08:53:30;;;;;;;72.93;30.33;;;10.30;99.90;;;;;;5055832;28;20035;-69
2023/10/27 08:55:59;;;;;;;69.10;30.05;;;10.20;99.90;;;;;;5055458;28;20485;-70
2023/10/27 08:58:24;;;;;;;75.43;30.25;;;10.20;99.90;;;;;;5055516;28;20025;-70
2023/10/27 09:00:50;;;;;;;67.53;29.77;;;10.10;99.90;;;;;;5055114;28;20032;-70
2023/10/27 09:03:16;;;;;;;73.80;30.42;;;10.20;99.90;;;;;;5055079;28;20360;-70
2023/10/27 09:05:42;;;;;;;76.35;29.75;;;10.70;99.90;;;;;;5054341;28;20386;-70
2023/10/27 09:08:09;;;;;;;69.72;29.65;;;10.20;99.90;;;;;;5055209;28;20021;-70
2023/10/27 09:10:34;;;;;;;72.28;30.70;;;10.50;99.90;;;;;;5054943;28;20166;-70
2023/10/27 09:13:00;;;;;;;62.72;28.92;;;10.40;99.90;;;;;;5055288;28;20065;-72
2023/10/27 09:15:38;;;;;;;63.78;29.42;;;10.50;99.90;;;;;;5055121;28;20036;-71
2023/10/27 09:18:04;;;;;;;64.93;28.45;;;10.40;99.90;;;;;;5053260;28;20123;-71
2023/10/27 09:20:29;;;;;;;67.18;28.55;;;10.60;99.90;;;;;;5055354;28;20113;-71
2023/10/27 09:22:58;;;;;;;63.05;27.25;;;10.50;99.90;;;;;;5054901;28;20025;-71
2023/10/27 09:25:29;;;;;;;63.47;27.50;;;10.40;99.90;;;;;;5054061;28;20029;-72
2023/10/27 09:27:55;;;;;;;57.45;26.73;;;9.80;99.90;;;;;;5054414;28;20390;-72
2023/10/27 09:30:41;;;;;;;59.58;27.58;;;10.60;99.90;;;;;;5054455;28;20025;-72
2023/10/27 09:33:26;;;;;;;57.30;26.55;;;10.60;99.90;;;;;;5054335;28;20116;-72
2023/10/27 09:35:53;;;;;;;59.90;26.83;;;10.60;99.90;;;;;;5053975;28;20055;-72
2023/10/27 09:38:20;;;;;;;60.72;27.17;;;10.60;99.90;;;;;;5054522;28;20079;-73
2023/10/27 09:40:47;;;;;;;58.45;27.83;;;;;;;;;;5054885;28;20518;-72
2023/10/27 09:46:00;;;;;;;56.20;27.67;;;10.60;99.90;;;;;;5091325;27;20386;-72
2023/10/27 09:48:28;;;;;;;52.92;25.92;;;10.80;99.90;;;;;;5091665;28;20035;-71
2023/10/27 09:51:04;;;;;;;56.15;25.10;;;11.00;99.90;;;;;;5091353;28;20025;-71
2023/10/27 09:53:30;;;;;;;50.42;23.90;;;10.90;99.90;;;;;;5091115;28;20078;-70
2023/10/27 09:55:58;;;;;;;44.28;22.88;;;11.00;99.90;;;;;;5091219;28;20032;-71
2023/10/27 09:58:27;;;;;;;50.10;22.67;;;10.80;99.90;;;;;;5090749;28;20037;-71
2023/10/27 10:00:53;;;;;;;49.30;23.15;;;11.10;99.90;;;;;;5091291;28;20024;-70
2023/10/27 10:03:23;;;;;;;43.97;22.08;;;10.90;99.90;;;;;;5090733;28;20020;-71
2023/10/27 10:09:09;;;;;;;52.92;23.92;;;10.90;99.90;;;;;;5111765;27;20351;-72
2023/10/27 10:11:53;;;;;;;43.80;21.83;;;10.90;99.90;;;;;;5111466;28;20032;-72
2023/10/27 10:14:43;;;;;;;40.40;21.35;;;11.00;99.90;;;;;;5111190;28;20028;-72
2023/10/27 10:17:09;;;;;;;40.25;21.00;;;10.90;99.90;;;;;;5111059;28;20098;-72
2023/10/27 10:19:51;;;;;;;43.72;20.98;;;11.20;99.90;;;;;;5111507;28;20115;-73
2023/10/27 10:28:16;;;;;;;40.33;20.75;;;;;;;;;;5111754;27;20388;-71
2023/10/27 10:30:44;;;;;;;39.65;20.95;;;11.30;99.90;;;;;;5111681;28;20493;-71
2023/10/27 10:33:19;;;;;;;40.25;21.35;;;11.30;99.90;;;;;;5111497;28;20073;-70
2023/10/27 10:35:47;;;;;;;37.42;19.98;;;11.60;99.90;;;;;;5111541;28;20020;-71
2023/10/27 10:38:36;;;;;;;38.33;19.35;;;11.70;99.90;;;;;;5111320;28;20118;-71
2023/10/27 10:41:02;;;;;;;31.63;17.40;;;11.60;99.90;;;;;;5111456;28;20023;-71
2023/10/27 10:43:32;;;;;;;36.90;18.52;;;11.60;99.90;;;;;;5111684;28;20038;-71
2023/10/27 10:46:00;;;;;;;33.25;17.65;;;11.70;99.90;;;;;;5111281;28;20028;-71
2023/10/27 10:48:27;;;;;;;31.20;17.85;;;11.90;99.90;;;;;;5111403;28;20031;-71
2023/10/27 10:50:58;;;;;;;27.85;16.60;;;11.80;99.90;;;;;;5111443;28;20461;-71
2023/10/27 10:53:24;;;;;;;28.80;15.32;;;11.50;99.90;;;;;;5111447;28;20031;-72
2023/10/27 10:55:51;;;;;;;24.83;14.15;;;11.80;99.90;;;;;;5110927;28;20393;-71
2023/10/27 10:58:26;;;;;;;28.73;16.33;;;11.70;99.90;;;;;;5111264;28;20115;-71
2023/10/27 11:00:53;;;;;;;33.78;16.48;;;11.70;99.90;;;;;;5111503;28;20358;-71
2023/10/27 11:03:21;;;;;;;32.45;14.98;;;11.70;99.90;;;;;;5111581;28;20028;-70
2023/10/27 11:05:47;;;;;;;22.63;14.13;;;11.50;99.90;;;;;;5110823;28;20031;-70
2023/10/27 11:08:23;;;;;;;25.92;14.38;;;11.50;99.90;;;;;;5110713;28;20027;-72
2023/10/27 11:10:57;;;;;;;26.02;14.98;;;11.50;99.90;;;;;;5090303;28;20107;-72
2023/10/27 11:13:23;;;;;;;25.45;15.05;;;11.50;99.90;;;;;;5090879;28;20462;-72
2023/10/27 11:15:49;;;;;;;27.08;15.80;;;11.80;99.90;;;;;;5090900;28;20470;-71
2023/10/27 11:18:16;;;;;;;22.77;13.48;;;11.70;99.90;;;;;;5090876;28;20056;-70
2023/10/27 11:20:45;;;;;;;25.90;15.18;;;11.50;99.90;;;;;;5090817;28;20033;-70
2023/10/27 11:23:13;;;;;;;27.67;15.27;;;11.40;99.90;;;;;;5090105;28;20385;-70
2023/10/27 11:25:39;;;;;;;25.95;14.38;;;11.40;99.90;;;;;;5089870;28;20021;-69
2023/10/27 11:28:24;;;;;;;24.85;14.82;;;11.70;99.90;;;;;;5089806;28;20517;-70
2023/10/27 11:31:08;;;;;;;24.40;14.20;;;11.50;99.90;;;;;;5090250;28;20112;-70
2023/10/27 11:33:54;;;;;;;21.17;12.40;;;11.60;99.90;;;;;;5090571;28;20029;-71
2023/10/27 11:36:19;;;;;;;17.67;9.30;;;11.70;99.90;;;;;;5090123;28;20378;-70
2023/10/27 11:38:45;;;;;;;15.93;10.27;;;11.50;99.90;;;;;;5079200;28;20020;-68
2023/10/27 11:41:12;;;;;;;17.25;9.73;;;11.50;99.90;;;;;;5076951;28;20115;-69
2023/10/27 11:43:39;;;;;;;16.50;9.73;;;11.30;99.90;;;;;;5076830;28;20401;-69
2023/10/27 11:46:10;;;;;;;13.10;9.07;;;11.70;99.90;;;;;;5076474;28;20073;-69
2023/10/27 11:48:36;;;;;;;17.65;8.90;;;11.90;99.90;;;;;;5076717;28;20089;-70
2023/10/27 11:51:01;;;;;;;12.50;7.45;;;11.70;99.90;;;;;;5076315;28;20017;-70
2023/10/27 11:53:27;;;;;;;10.73;6.68;;;;;;;;;;5076560;28;20036;-71
2023/10/27 11:55:53;;;;;;;11.30;5.82;;;12.20;99.90;;;;;;5075929;28;20028;-71
2023/10/27 11:58:18;;;;;;;8.35;5.10;;;12.20;99.90;;;;;;5076404;28;20028;-70
2023/10/27 12:00:44;;;;;;;6.65;4.68;;;11.50;99.90;;;;;;5075531;28;20059;-71
2023/10/27 12:03:09;;;;;;;6.75;5.28;;;12.20;99.90;;;;;;5076144;28;20069;-71
2023/10/27 12:05:35;;;;;;;10.55;6.07;;;12.10;99.90;;;;;;5075830;28;20039;-71
2023/10/27 12:08:00;;;;;;;7.65;5.80;;;12.20;99.90;;;;;;5076454;28;20024;-71
2023/10/27 12:10:26;;;;;;;10.25;4.82;;;12.20;99.90;;;;;;5075945;28;20012;-72
2023/10/27 12:12:51;;;;;;;6.80;5.00;;;12.10;99.90;;;;;;5076287;28;20097;-72
2023/10/27 12:15:17;;;;;;;7.28;5.43;;;12.00;99.90;;;;;;5075628;28;20028;-72
2023/10/27 12:17:43;;;;;;;9.90;6.22;;;12.00;99.90;;;;;;5076258;28;20074;-73
2023/10/27 12:20:10;;;;;;;8.07;5.85;;;12.00;99.90;;;;;;5075588;28;20086;-72
2023/10/27 12:22:36;;;;;;;11.23;6.20;;;12.00;99.90;;;;;;5076152;28;20024;-72
2023/10/27 12:25:02;;;;;;;11.40;7.60;;;11.90;99.90;;;;;;5075759;28;20024;-72
2023/10/27 12:27:27;;;;;;;11.30;6.70;;;11.80;99.90;;;;;;5074787;28;20052;-72
2023/10/27 12:29:53;;;;;;;8.20;6.13;;;11.80;99.90;;;;;;5075978;28;20036;-73
2023/10/27 12:32:18;;;;;;;8.80;5.68;;;11.70;99.90;;;;;;5075415;28;20024;-72
2023/10/27 12:34:45;;;;;;;7.70;6.18;;;11.70;99.90;;;;;;5075552;28;20039;-73
2023/10/27 12:37:10;;;;;;;8.57;6.43;;;11.90;99.90;;;;;;5075040;28;20103;-74
2023/10/27 12:39:36;;;;;;;8.57;7.03;;;11.90;99.90;;;;;;5075564;28;20135;-73
2023/10/27 12:42:01;;;;;;;9.23;7.63;;;11.80;99.90;;;;;;5075186;28;20036;-73
2023/10/27 12:44:27;;;;;;;9.73;7.82;;;11.80;99.90;;;;;;5075239;28;20036;-74